createdAt,value
2023-03-26T00:01:33.876Z,14.75
2023-03-26T00:04:01.679Z,15.95
2023-03-26T00:06:31.857Z,14.80
2023-03-26T00:08:59.274Z,15.65
2023-03-26T00:11:32.233Z,15.18
2023-03-26T00:13:59.801Z,16.45
2023-03-26T00:16:30.457Z,17.98
2023-03-26T00:19:00.029Z,17.83
2023-03-26T00:21:29.446Z,17.88
2023-03-26T00:23:59.882Z,18.50
2023-03-26T00:26:29.616Z,18.13
2023-03-26T00:28:58.563Z,17.83
2023-03-26T00:31:26.170Z,18.63
2023-03-26T00:33:56.390Z,18.02
2023-03-26T00:36:25.835Z,18.45
2023-03-26T00:38:53.997Z,17.33
2023-03-26T00:41:25.948Z,18.85
2023-03-26T00:43:56.669Z,18.98
2023-03-26T00:46:25.795Z,18.92
2023-03-26T00:48:53.518Z,18.45
2023-03-26T00:51:22.084Z,18.27
2023-03-26T00:53:50.616Z,19.80
2023-03-26T00:56:18.887Z,18.42
2023-03-26T00:58:49.987Z,18.23
2023-03-26T01:01:27.519Z,19.23
2023-03-26T01:04:08.393Z,18.02
2023-03-26T01:06:42.262Z,19.02
2023-03-26T01:09:17.054Z,20.13
2023-03-26T01:11:45.500Z,19.83
2023-03-26T01:14:17.667Z,18.98
2023-03-26T01:16:52.382Z,18.17
2023-03-26T01:19:44.931Z,17.92
2023-03-26T01:22:27.231Z,20.67
2023-03-26T01:24:56.591Z,19.27
2023-03-26T01:27:43.392Z,19.95
2023-03-26T01:30:28.171Z,22.05
2023-03-26T01:33:14.155Z,21.27
2023-03-26T01:35:48.574Z,21.85
2023-03-26T01:38:35.450Z,21.17
2023-03-26T01:41:10.386Z,20.92
2023-03-26T01:43:45.278Z,22.10
2023-03-26T01:46:15.907Z,23.38
2023-03-26T01:48:46.169Z,22.83
2023-03-26T01:51:25.062Z,21.73
2023-03-26T01:53:53.777Z,22.05
2023-03-26T01:56:44.339Z,21.67
2023-03-26T01:59:29.991Z,21.35
2023-03-26T02:02:21.826Z,22.75
2023-03-26T02:05:04.181Z,22.67
2023-03-26T02:10:16.231Z,22.45
2023-03-26T02:12:44.668Z,21.45
2023-03-26T02:15:13.189Z,23.23
2023-03-26T02:17:40.745Z,22.42
2023-03-26T02:20:11.174Z,21.08
2023-03-26T02:22:40.987Z,24.17
2023-03-26T02:25:13.344Z,23.80
2023-03-26T02:27:41.402Z,26.05
2023-03-26T02:30:15.480Z,27.35
2023-03-26T02:32:44.398Z,27.60
2023-03-26T02:35:13.122Z,29.48
2023-03-26T02:37:42.199Z,27.90
2023-03-26T02:40:17.557Z,28.17
2023-03-26T02:42:47.276Z,27.27
2023-03-26T02:45:15.639Z,29.73
2023-03-26T02:48:01.476Z,29.38
2023-03-26T02:50:50.056Z,28.98
2023-03-26T02:53:41.311Z,27.58
2023-03-26T02:56:41.022Z,27.05
2023-03-26T02:59:25.234Z,26.92
2023-03-26T03:02:30.039Z,27.58
2023-03-26T03:05:08.100Z,25.98
2023-03-26T03:07:38.636Z,26.50
2023-03-26T03:10:08.666Z,25.40
2023-03-26T03:12:56.276Z,27.02
2023-03-26T03:15:23.663Z,25.60
2023-03-26T03:17:51.512Z,25.70
2023-03-26T03:20:18.982Z,27.08
2023-03-26T03:22:46.482Z,27.45
2023-03-26T03:25:14.433Z,27.05
2023-03-26T03:27:42.857Z,27.83
2023-03-26T03:30:14.310Z,26.87
2023-03-26T03:33:19.242Z,25.02
2023-03-26T03:35:49.033Z,28.40
2023-03-26T03:38:17.955Z,28.00
2023-03-26T03:40:48.755Z,26.75
2023-03-26T03:43:17.118Z,26.27
2023-03-26T03:46:07.541Z,27.15
2023-03-26T03:48:48.256Z,26.33
2023-03-26T03:51:18.368Z,28.25
2023-03-26T03:53:55.950Z,28.77
2023-03-26T03:56:47.328Z,26.75
2023-03-26T03:59:33.562Z,27.38
2023-03-26T04:02:03.887Z,25.52
2023-03-26T04:04:41.147Z,26.73
2023-03-26T04:07:13.547Z,25.27
2023-03-26T04:10:03.095Z,24.67
2023-03-26T04:12:50.454Z,24.92
2023-03-26T04:15:20.390Z,25.05
2023-03-26T04:17:48.242Z,27.02
2023-03-26T04:20:19.377Z,25.83
2023-03-26T04:22:48.883Z,28.08
2023-03-26T04:25:18.752Z,27.08
2023-03-26T04:27:50.628Z,28.08
2023-03-26T04:30:28.312Z,28.15
2023-03-26T04:33:06.453Z,29.13
2023-03-26T04:35:41.656Z,30.27
2023-03-26T04:38:11.491Z,29.05
2023-03-26T04:40:43.309Z,31.33
2023-03-26T04:43:36.037Z,30.48
2023-03-26T04:46:35.821Z,32.92
2023-03-26T04:49:16.134Z,32.17
2023-03-26T04:51:46.196Z,30.30
2023-03-26T04:54:33.514Z,29.25
2023-03-26T04:57:12.364Z,30.67
2023-03-26T04:59:50.147Z,31.02
2023-03-26T05:02:17.964Z,30.15
2023-03-26T05:04:53.827Z,32.70
2023-03-26T05:07:24.188Z,32.53
2023-03-26T05:09:57.513Z,30.08
2023-03-26T05:12:54.472Z,31.60
2023-03-26T05:15:25.999Z,29.88
2023-03-26T05:18:12.007Z,29.58
2023-03-26T05:20:46.413Z,30.65
2023-03-26T05:23:14.068Z,31.10
2023-03-26T05:25:44.514Z,31.45
2023-03-26T05:28:19.261Z,28.75
2023-03-26T05:30:55.684Z,29.10
2023-03-26T05:33:25.211Z,27.73
2023-03-26T05:36:09.949Z,28.75
2023-03-26T05:38:37.457Z,26.95
2023-03-26T05:41:08.899Z,26.15
2023-03-26T05:43:38.981Z,25.02
2023-03-26T05:46:11.103Z,26.73
2023-03-26T05:48:39.251Z,25.80
2023-03-26T05:51:07.942Z,24.05
2023-03-26T05:53:35.888Z,21.60
2023-03-26T05:56:15.423Z,20.85
2023-03-26T05:59:01.161Z,20.10
2023-03-26T06:01:34.170Z,18.65
2023-03-26T06:04:17.909Z,18.23
2023-03-26T06:07:02.210Z,19.90
2023-03-26T06:09:29.744Z,19.15
2023-03-26T06:11:57.141Z,19.05
2023-03-26T06:14:24.478Z,19.95
2023-03-26T06:17:14.179Z,18.58
2023-03-26T06:20:11.213Z,18.38
2023-03-26T06:22:42.014Z,18.52
2023-03-26T06:25:21.100Z,17.73
2023-03-26T06:28:20.434Z,17.60
2023-03-26T06:31:07.021Z,16.77
2023-03-26T06:33:37.621Z,16.55
2023-03-26T06:36:06.289Z,16.63
2023-03-26T06:38:34.029Z,16.88
2023-03-26T06:41:05.553Z,16.52
2023-03-26T06:43:51.865Z,15.07
2023-03-26T06:46:38.118Z,16.80
2023-03-26T06:49:24.089Z,16.17
2023-03-26T06:52:13.056Z,16.75
2023-03-26T06:54:51.375Z,15.55
2023-03-26T06:57:49.218Z,14.93
2023-03-26T07:00:20.359Z,14.85
2023-03-26T07:03:06.552Z,14.25
2023-03-26T07:05:52.350Z,13.70
2023-03-26T07:08:38.529Z,14.73
2023-03-26T07:11:25.611Z,12.73
2023-03-26T07:14:13.000Z,12.15
2023-03-26T07:17:02.731Z,11.48
2023-03-26T07:19:38.129Z,10.68
2023-03-26T07:22:05.992Z,11.95
2023-03-26T07:25:06.889Z,10.70
2023-03-26T07:28:18.509Z,12.13
2023-03-26T07:31:34.962Z,9.95
2023-03-26T07:34:38.530Z,8.88
2023-03-26T07:37:53.919Z,8.30
2023-03-26T07:40:44.496Z,8.05
2023-03-26T07:43:50.240Z,7.47
2023-03-26T07:46:32.095Z,7.55
2023-03-26T07:49:20.393Z,7.65
2023-03-26T07:52:04.355Z,7.45
2023-03-26T07:54:50.511Z,7.60
2023-03-26T07:58:21.174Z,7.68
2023-03-26T08:01:39.955Z,7.50
2023-03-26T08:04:28.185Z,7.97
2023-03-26T08:07:25.032Z,7.65
2023-03-26T08:10:43.157Z,6.72
2023-03-26T08:13:20.071Z,7.60
2023-03-26T08:16:10.293Z,7.50
2023-03-26T08:19:01.603Z,11.07
2023-03-26T08:21:54.228Z,7.53
2023-03-26T08:27:02.851Z,8.13
2023-03-26T08:29:50.086Z,7.47
2023-03-26T08:32:19.990Z,7.65
2023-03-26T08:34:47.376Z,7.88
2023-03-26T08:37:14.838Z,6.13
2023-03-26T08:39:42.453Z,7.13
2023-03-26T08:42:31.725Z,6.55
2023-03-26T08:45:17.103Z,5.47
2023-03-26T08:48:06.544Z,4.05
2023-03-26T08:50:52.847Z,3.10
2023-03-26T08:53:57.658Z,3.28
2023-03-26T08:56:27.992Z,2.53
2023-03-26T08:58:57.623Z,2.63
2023-03-26T09:01:31.158Z,2.33
2023-03-26T09:04:07.111Z,2.65
2023-03-26T09:06:58.392Z,2.60
2023-03-26T09:09:46.781Z,2.70
2023-03-26T09:12:57.220Z,2.20
2023-03-26T09:15:36.344Z,2.97
2023-03-26T09:18:22.209Z,3.25
2023-03-26T09:21:10.448Z,3.60
2023-03-26T09:24:25.487Z,3.58
2023-03-26T09:27:32.847Z,3.60
2023-03-26T09:30:06.772Z,3.20
2023-03-26T09:32:48.899Z,3.33
2023-03-26T09:35:33.202Z,3.58
2023-03-26T09:38:11.333Z,4.05
2023-03-26T09:40:58.826Z,3.70
2023-03-26T09:43:52.120Z,3.70
2023-03-26T09:46:35.524Z,4.32
2023-03-26T09:49:02.898Z,3.70
2023-03-26T09:51:49.364Z,3.42
2023-03-26T09:54:53.978Z,4.03
2023-03-26T09:57:53.643Z,3.60
2023-03-26T10:00:28.573Z,4.13
2023-03-26T10:03:31.161Z,4.55
2023-03-26T10:06:37.244Z,4.57
2023-03-26T10:09:30.743Z,4.35
2023-03-26T10:12:13.628Z,3.95
2023-03-26T10:15:05.304Z,4.38
2023-03-26T10:18:27.638Z,4.07
2023-03-26T10:21:05.718Z,4.18
2023-03-26T10:24:00.448Z,5.15
2023-03-26T10:26:33.843Z,4.35
2023-03-26T10:29:26.064Z,4.78
2023-03-26T10:31:56.109Z,4.95
2023-03-26T10:34:36.900Z,5.20
2023-03-26T10:37:19.163Z,5.72
2023-03-26T10:39:58.440Z,5.95
2023-03-26T10:42:53.897Z,6.25
2023-03-26T10:45:40.909Z,6.57
2023-03-26T10:48:27.131Z,5.80
2023-03-26T10:51:06.410Z,5.80
2023-03-26T10:54:02.702Z,5.90
2023-03-26T10:56:40.048Z,5.53
2023-03-26T10:59:12.248Z,5.82
2023-03-26T11:02:04.146Z,5.90
2023-03-26T11:04:43.737Z,6.18
2023-03-26T11:07:30.702Z,6.25
2023-03-26T11:10:12.807Z,5.85
2023-03-26T11:13:04.988Z,5.15
2023-03-26T11:15:42.424Z,5.07
2023-03-26T11:18:16.111Z,5.47
2023-03-26T11:21:19.090Z,5.47
2023-03-26T11:24:23.213Z,5.25
2023-03-26T11:26:56.129Z,5.18
2023-03-26T11:29:36.360Z,6.30
2023-03-26T11:32:29.325Z,4.43
2023-03-26T11:35:41.026Z,4.60
2023-03-26T11:38:15.300Z,5.40
2023-03-26T11:40:48.881Z,4.97
2023-03-26T11:43:30.116Z,4.80
2023-03-26T11:45:57.814Z,4.03
2023-03-26T11:48:37.121Z,4.60
2023-03-26T11:51:11.610Z,5.03
2023-03-26T11:53:39.973Z,4.80
2023-03-26T11:56:15.212Z,5.18
2023-03-26T11:58:48.002Z,4.60
2023-03-26T12:01:19.186Z,4.07
2023-03-26T12:04:19.266Z,4.80
2023-03-26T12:07:42.643Z,5.20
2023-03-26T12:12:48.717Z,4.45
2023-03-26T12:15:21.551Z,4.22
2023-03-26T12:17:53.644Z,4.47
2023-03-26T12:20:29.837Z,4.30
2023-03-26T12:22:59.702Z,4.32
2023-03-26T12:25:33.931Z,4.75
2023-03-26T12:28:14.149Z,3.92
2023-03-26T12:31:03.011Z,4.15
2023-03-26T12:33:34.283Z,4.25
2023-03-26T12:36:23.265Z,4.25
2023-03-26T12:39:43.182Z,4.43
2023-03-26T12:44:44.474Z,4.80
2023-03-26T12:44:47.004Z,5.30
2023-03-26T12:48:00.848Z,4.82
2023-03-26T12:50:15.573Z,3.88
2023-03-26T12:53:15.183Z,3.88
2023-03-26T12:55:58.440Z,4.57
2023-03-26T12:58:51.443Z,4.57
2023-03-26T13:01:25.178Z,5.50
2023-03-26T13:04:11.562Z,4.70
2023-03-26T13:07:00.031Z,4.47
2023-03-26T13:10:01.385Z,4.80
2023-03-26T13:12:41.192Z,4.68
2023-03-26T13:15:14.550Z,5.10
2023-03-26T13:17:57.051Z,5.18
2023-03-26T13:20:40.114Z,4.30
2023-03-26T13:23:39.184Z,4.65
2023-03-26T13:26:24.770Z,4.60
2023-03-26T13:29:17.578Z,4.75
2023-03-26T13:32:17.906Z,4.47
2023-03-26T13:35:09.688Z,4.25
2023-03-26T13:37:49.121Z,5.17
2023-03-26T13:40:25.810Z,5.93
2023-03-26T13:43:13.591Z,4.80
2023-03-26T13:45:54.981Z,5.40
2023-03-26T13:48:43.067Z,5.28
2023-03-26T13:51:32.584Z,6.35
2023-03-26T13:54:09.115Z,5.00
2023-03-26T13:56:43.360Z,5.43
2023-03-26T13:59:24.137Z,5.60
2023-03-26T14:01:57.216Z,6.25
2023-03-26T14:04:33.309Z,5.30
2023-03-26T14:07:13.121Z,5.80
2023-03-26T14:09:58.470Z,5.68
2023-03-26T14:13:02.504Z,5.63
2023-03-26T14:15:46.950Z,5.45
2023-03-26T14:18:36.308Z,5.30
2023-03-26T14:21:26.184Z,5.47
2023-03-26T14:24:02.443Z,5.90
2023-03-26T14:26:37.372Z,5.30
2023-03-26T14:29:28.067Z,7.80
2023-03-26T14:32:10.693Z,7.00
2023-03-26T14:35:02.130Z,7.38
2023-03-26T14:37:47.140Z,7.45
2023-03-26T14:40:35.683Z,6.97
2023-03-26T14:43:24.640Z,7.18
2023-03-26T14:46:12.847Z,7.43
2023-03-26T14:49:03.298Z,7.95
2023-03-26T14:51:48.012Z,9.13
2023-03-26T14:54:20.419Z,8.82
2023-03-26T14:59:39.389Z,8.68
2023-03-26T15:02:30.595Z,10.32
2023-03-26T15:05:16.733Z,10.80
2023-03-26T15:08:24.982Z,11.07
2023-03-26T15:11:21.383Z,8.20
2023-03-26T15:14:13.627Z,10.05
2023-03-26T15:16:59.735Z,9.40
2023-03-26T15:19:57.777Z,9.52
2023-03-26T15:22:47.728Z,9.25
2023-03-26T15:25:15.252Z,10.10
2023-03-26T15:28:10.590Z,11.02
2023-03-26T15:30:56.665Z,10.63
2023-03-26T15:33:58.364Z,21.70
2023-03-26T15:36:53.221Z,9.95
2023-03-26T15:39:38.237Z,12.02
2023-03-26T15:42:38.145Z,12.48
2023-03-26T15:45:17.111Z,12.15
2023-03-26T15:48:10.350Z,11.10
2023-03-26T15:50:56.536Z,11.40
2023-03-26T15:53:53.369Z,10.20
2023-03-26T15:56:20.720Z,10.13
2023-03-26T15:59:11.921Z,12.35
2023-03-26T16:02:06.690Z,12.20
2023-03-26T16:04:51.757Z,11.38
2023-03-26T16:07:47.080Z,11.27
2023-03-26T16:10:34.936Z,11.18
2023-03-26T16:13:20.078Z,11.00
2023-03-26T16:15:55.939Z,9.73
2023-03-26T16:18:44.000Z,6.95
2023-03-26T16:21:31.352Z,5.65
2023-03-26T16:24:03.035Z,4.80
2023-03-26T16:26:51.308Z,5.32
2023-03-26T16:29:22.319Z,5.53
2023-03-26T16:32:14.932Z,4.45
2023-03-26T16:35:00.403Z,6.20
2023-03-26T16:37:39.597Z,6.05
2023-03-26T16:40:22.461Z,5.85
2023-03-26T16:43:06.264Z,8.80
2023-03-26T16:45:45.451Z,7.70
2023-03-26T16:48:49.836Z,7.95
2023-03-26T16:51:27.373Z,6.28
2023-03-26T16:54:33.037Z,5.68
2023-03-26T16:57:11.014Z,6.90
2023-03-26T17:00:06.280Z,5.18
2023-03-26T17:02:42.998Z,4.82
2023-03-26T17:05:13.249Z,5.40
2023-03-26T17:08:01.348Z,17.88
2023-03-26T17:10:47.298Z,4.90
2023-03-26T17:13:20.427Z,4.22
2023-03-26T17:16:13.143Z,4.07
2023-03-26T17:18:57.673Z,3.95
2023-03-26T17:21:46.121Z,4.68
2023-03-26T17:24:30.536Z,4.93
2023-03-26T17:27:52.728Z,7.80
2023-03-26T17:31:00.297Z,7.85
2023-03-26T17:33:39.045Z,5.43
2023-03-26T17:36:13.141Z,6.05
2023-03-26T17:38:40.566Z,7.60
2023-03-26T17:43:52.128Z,5.15
2023-03-26T17:46:39.147Z,4.32
2023-03-26T17:49:12.478Z,5.57
2023-03-26T17:52:00.909Z,4.53
2023-03-26T17:54:44.079Z,4.57
2023-03-26T17:57:15.944Z,5.22
2023-03-26T17:59:44.837Z,4.85
2023-03-26T18:02:30.126Z,4.65
2023-03-26T18:04:58.044Z,4.45
2023-03-26T18:08:02.778Z,5.03
2023-03-26T18:10:58.099Z,5.00
2023-03-26T18:13:53.109Z,6.80
2023-03-26T18:16:26.205Z,5.10
2023-03-26T18:19:04.572Z,5.05
2023-03-26T18:21:37.146Z,4.63
2023-03-26T18:24:07.702Z,5.18
2023-03-26T18:26:41.600Z,6.07
2023-03-26T18:29:18.252Z,4.95
2023-03-26T18:31:48.176Z,5.75
2023-03-26T18:34:18.983Z,5.90
2023-03-26T18:36:59.717Z,5.47
2023-03-26T18:39:28.292Z,6.27
2023-03-26T18:41:55.925Z,11.55
2023-03-26T18:44:23.516Z,5.95
2023-03-26T18:46:55.084Z,5.65
2023-03-26T18:49:23.987Z,6.00
2023-03-26T18:51:57.194Z,6.75
2023-03-26T18:54:28.728Z,6.22
2023-03-26T18:56:56.219Z,7.10
2023-03-26T18:59:35.177Z,7.07
2023-03-26T19:02:06.766Z,6.82
2023-03-26T19:04:36.837Z,6.75
2023-03-26T19:07:10.016Z,7.80
2023-03-26T19:09:38.787Z,6.55
2023-03-26T19:12:14.209Z,5.93
2023-03-26T19:14:56.371Z,7.45
2023-03-26T19:17:29.986Z,9.07
2023-03-26T19:19:57.809Z,6.22
2023-03-26T19:22:26.478Z,6.07
2023-03-26T19:25:01.219Z,6.03
2023-03-26T19:27:29.499Z,6.05
2023-03-26T19:29:57.432Z,5.78
2023-03-26T19:32:34.624Z,5.43
2023-03-26T19:35:04.316Z,6.07
2023-03-26T19:37:32.481Z,6.20
2023-03-26T19:40:25.565Z,6.57
2023-03-26T19:42:53.087Z,6.88
2023-03-26T19:45:23.019Z,7.82
2023-03-26T19:48:00.451Z,9.23
2023-03-26T19:50:42.846Z,9.02
2023-03-26T19:53:17.901Z,10.35
2023-03-26T19:55:59.360Z,10.55
2023-03-26T19:58:27.691Z,9.70
2023-03-26T20:00:58.203Z,10.27
2023-03-26T20:03:29.907Z,10.07
2023-03-26T20:05:57.500Z,11.82
2023-03-26T20:08:26.944Z,11.77
2023-03-26T20:10:56.476Z,10.77
2023-03-26T20:13:24.324Z,10.85
2023-03-26T20:16:14.966Z,11.30
2023-03-26T20:18:42.384Z,19.33
2023-03-26T20:21:12.191Z,11.43
2023-03-26T20:23:43.136Z,11.27
2023-03-26T20:26:16.480Z,11.57
2023-03-26T20:28:48.004Z,11.52
2023-03-26T20:31:19.345Z,11.93
2023-03-26T20:33:48.019Z,11.90
2023-03-26T20:36:34.146Z,12.90
2023-03-26T20:39:06.002Z,13.05
2023-03-26T20:41:36.055Z,13.67
2023-03-26T20:44:05.908Z,12.50
2023-03-26T20:46:33.583Z,13.35
2023-03-26T20:49:01.066Z,13.43
2023-03-26T20:51:29.087Z,13.90
2023-03-26T20:53:56.647Z,13.70
2023-03-26T20:56:24.173Z,14.55
2023-03-26T20:59:09.832Z,14.40
2023-03-26T21:01:38.966Z,15.20
2023-03-26T21:04:07.081Z,14.88
2023-03-26T21:06:34.561Z,16.10
2023-03-26T21:09:02.208Z,16.38
2023-03-26T21:11:35.816Z,16.80
2023-03-26T21:14:32.948Z,16.48
2023-03-26T21:17:01.362Z,18.00
2023-03-26T21:19:29.190Z,18.08
2023-03-26T21:22:18.658Z,18.73
2023-03-26T21:24:58.280Z,19.60
2023-03-26T21:27:43.780Z,20.05
2023-03-26T21:30:14.410Z,21.02
2023-03-26T21:32:43.414Z,19.92
2023-03-26T21:35:13.670Z,21.30
2023-03-26T21:37:43.134Z,20.83
2023-03-26T21:40:16.532Z,20.65
2023-03-26T21:42:49.796Z,20.00
2023-03-26T21:45:18.604Z,22.15
2023-03-26T21:47:46.635Z,22.50
2023-03-26T21:50:17.789Z,23.13
2023-03-26T21:52:49.179Z,23.67
2023-03-26T21:55:21.518Z,22.88
2023-03-26T21:57:55.483Z,23.73
2023-03-26T22:00:33.556Z,24.70
2023-03-26T22:03:19.308Z,25.00
2023-03-26T22:05:46.967Z,25.65
2023-03-26T22:08:29.330Z,25.08
2023-03-26T22:10:57.004Z,24.63
2023-03-26T22:13:25.268Z,26.02
2023-03-26T22:15:52.839Z,25.02
2023-03-26T22:18:25.813Z,25.98
2023-03-26T22:20:53.297Z,26.50
2023-03-26T22:23:20.899Z,25.67
2023-03-26T22:25:48.713Z,25.40
2023-03-26T22:28:16.535Z,23.08
2023-03-26T22:30:44.250Z,24.02
2023-03-26T22:33:12.218Z,23.00
2023-03-26T22:35:42.895Z,22.92
2023-03-26T22:38:11.701Z,23.15
2023-03-26T22:40:39.208Z,29.65
2023-03-26T22:43:07.358Z,22.45
2023-03-26T22:45:34.968Z,20.85
2023-03-26T22:48:04.669Z,23.02
2023-03-26T22:50:32.844Z,23.73
2023-03-26T22:53:00.552Z,23.42
2023-03-26T22:55:28.918Z,24.60
2023-03-26T22:57:57.787Z,26.75
2023-03-26T23:00:26.471Z,27.00
2023-03-26T23:02:55.985Z,27.63
2023-03-26T23:05:23.681Z,27.35
2023-03-26T23:07:52.290Z,27.70
2023-03-26T23:10:21.605Z,27.52
2023-03-26T23:12:49.680Z,27.38
2023-03-26T23:15:17.067Z,27.73
2023-03-26T23:17:44.465Z,26.85
2023-03-26T23:20:22.057Z,29.27
2023-03-26T23:22:49.429Z,27.77
2023-03-26T23:25:17.997Z,29.02
2023-03-26T23:27:48.712Z,29.55
2023-03-26T23:30:17.875Z,30.10
2023-03-26T23:32:45.688Z,29.95
2023-03-26T23:35:13.770Z,30.45
2023-03-26T23:37:42.486Z,27.00
2023-03-26T23:40:10.866Z,28.13
2023-03-26T23:42:38.502Z,26.85
2023-03-26T23:45:08.443Z,27.17
2023-03-26T23:47:36.164Z,27.30
2023-03-26T23:50:04.513Z,26.58
2023-03-26T23:52:31.953Z,26.88
2023-03-26T23:55:02.150Z,28.35
2023-03-26T23:57:30.550Z,28.40
2023-03-26T23:59:58.418Z,29.02
